First Clarity — A8RM8 — position and weather

sailwx.info

Track history (hours):
 
Tides and Currents Weather Stations Pressure Air Temp Water Temp Dewpoint Dewpoint Depression Visibility Wind Speed Wind Dir Waves Ship Positions

First Clarity

Last reported at 2015-Jul-30 09:31 UTC. Time now 2015-Jul-30 10:08 UTC.
Position N 35°24' E 139°38'.

Length 104 m; draft 4.6 m.

Type: Cargo ship. MMSI: 636014129.

Date/timePositionNaut miles runAvg speedWind from/ knotsBaromVisibWave heightAir tempDewpointWater temp
2015-Jul-30 09:31N 35°24' E 139°38'0 0.0
2015-Jul-30 08:31N 35°24' E 139°38'0 0.0
2015-Jul-30 07:31N 35°24' E 139°38'0 0.0
2015-Jul-30 06:31N 35°24' E 139°38'0 0.0
2015-Jul-30 05:31N 35°24' E 139°38'0 0.0
2015-Jul-30 04:31N 35°24' E 139°38'0 0.0
2015-Jul-30 03:31N 35°24' E 139°38'0 0.0
2015-Jul-30 02:31N 35°24' E 139°38'0 0.0
2015-Jul-30 01:31N 35°24' E 139°38'0 0.0
2015-Jul-30 00:31N 35°24' E 139°38'0 0.0
2015-Jul-29 23:31N 35°24' E 139°38'0 0.2
2015-Jul-29 22:33N 35°25' E 139°39'1 1.4
2015-Jul-29 21:31N 35°24' E 139°40'0 0.1
2015-Jul-29 20:31N 35°23' E 139°40'0 0.1
2015-Jul-29 19:31N 35°23' E 139°40'0 0.0
2015-Jul-29 18:31N 35°23' E 139°40'0 0.0
2015-Jul-29 17:31N 35°23' E 139°40'0 0.0
2015-Jul-29 16:31N 35°24' E 139°40'0 0.1
2015-Jul-29 15:31N 35°24' E 139°40'0 0.0
2015-Jul-29 14:31N 35°24' E 139°40'0 0.0
2015-Jul-29 13:31N 35°24' E 139°40'0 0.1
2015-Jul-29 12:31N 35°24' E 139°40'0 0.0
2015-Jul-29 11:28N 35°23' E 139°40'0 0.0
2015-Jul-29 10:31N 35°23' E 139°40'0 0.1
2015-Jul-29 09:31N 35°24' E 139°40'0 0.0
2015-Jul-29 08:31N 35°24' E 139°40'0 0.1
2015-Jul-29 07:31N 35°24' E 139°40'0 0.1
2015-Jul-29 06:31N 35°23' E 139°40'0 0.0
2015-Jul-29 05:31N 35°23' E 139°40'0 0.1
2015-Jul-29 04:31N 35°23' E 139°40'0 0.1
2015-Jul-29 03:31N 35°24' E 139°40'0 0.0
2015-Jul-29 02:31N 35°24' E 139°40'0 0.1
2015-Jul-29 01:31N 35°24' E 139°40'0 0.1
2015-Jul-29 00:31N 35°24' E 139°40'0 0.0
2015-Jul-28 23:31N 35°24' E 139°40'0 0.0
2015-Jul-28 22:31N 35°24' E 139°40'0 0.0
2015-Jul-28 21:31N 35°23' E 139°40'0 0.0
2015-Jul-28 20:31N 35°23' E 139°40'0 0.1
2015-Jul-28 19:31N 35°23' E 139°40'0 0.0
2015-Jul-28 18:31N 35°23' E 139°40'0 0.0
2015-Jul-28 17:31N 35°23' E 139°40'0 0.0
2015-Jul-28 16:31N 35°23' E 139°40'0 0.0
2015-Jul-28 15:31N 35°24' E 139°40'0 0.1
2015-Jul-28 14:31N 35°24' E 139°40'0 0.0
2015-Jul-28 13:31N 35°24' E 139°40'0 0.0
2015-Jul-28 12:31N 35°24' E 139°40'0 0.0
2015-Jul-28 11:31N 35°24' E 139°40'0 0.0
2015-Jul-28 10:31N 35°24' E 139°40'0 0.0
2015-Jul-28 09:31N 35°24' E 139°40'0 0.1
2015-Jul-28 08:31N 35°24' E 139°40'0 0.0
2015-Jul-28 07:31N 35°24' E 139°40'0 0.1
2015-Jul-28 06:31N 35°24' E 139°40'0 0.0
2015-Jul-28 05:31N 35°24' E 139°40'0 0.0
2015-Jul-28 04:31N 35°24' E 139°40'0 0.0
2015-Jul-28 03:31N 35°24' E 139°40'0 0.0
2015-Jul-28 02:31N 35°24' E 139°40'0 0.0
2015-Jul-28 01:31N 35°24' E 139°40'0 0.0
2015-Jul-28 00:31N 35°24' E 139°40'0 0.0
2015-Jul-27 23:31N 35°24' E 139°40'0 0.0
2015-Jul-27 22:31N 35°24' E 139°40'0 0.1
2015-Jul-27 21:31N 35°24' E 139°40'0 0.0
2015-Jul-27 20:31N 35°24' E 139°40'0 0.0
2015-Jul-27 19:31N 35°24' E 139°40'0 0.1
2015-Jul-27 18:31N 35°24' E 139°40'0 0.0
2015-Jul-27 17:31N 35°24' E 139°40'1 0.8
2015-Jul-27 16:33N 35°23' E 139°41'9 9.4
2015-Jul-27 15:33N 35°15' E 139°47'1111.0
2015-Jul-27 14:33N 35°05' E 139°43'1712.2
2015-Jul-27 13:12N 34°54' E 139°28'228 9.6
2015-Jul-26 13:29N 34°02' E 134°58'910.1
2015-Jul-26 12:34N 34°11' E 134°58'1010.4
2015-Jul-26 11:33N 34°22' E 134°60'1010.0
2015-Jul-26 10:33N 34°31' E 135°03'7 6.6
2015-Jul-26 09:32N 34°36' E 134°57'  
Track history (hours):
 
Tides and Currents Weather Stations Pressure Air Temp Water Temp Dewpoint Dewpoint Depression Visibility Wind Speed Wind Dir Waves Ship Positions

First Clarity

Last reported at 2015-Jul-30 09:31 UTC. Time now 2015-Jul-30 10:08 UTC.
Position N 35°24' E 139°38'.

Length 104 m; draft 4.6 m.

Type: Cargo ship. MMSI: 636014129.

Date/timePositionNaut miles runAvg speedWind from/ knotsBaromVisibWave heightAir tempDewpointWater temp
2015-Jul-30 09:31N 35°24' E 139°38'0 0.0
2015-Jul-30 08:31N 35°24' E 139°38'0 0.0
2015-Jul-30 07:31N 35°24' E 139°38'0 0.0
2015-Jul-30 06:31N 35°24' E 139°38'0 0.0
2015-Jul-30 05:31N 35°24' E 139°38'0 0.0
2015-Jul-30 04:31N 35°24' E 139°38'0 0.0
2015-Jul-30 03:31N 35°24' E 139°38'0 0.0
2015-Jul-30 02:31N 35°24' E 139°38'0 0.0
2015-Jul-30 01:31N 35°24' E 139°38'0 0.0
2015-Jul-30 00:31N 35°24' E 139°38'0 0.0
2015-Jul-29 23:31N 35°24' E 139°38'0 0.2
2015-Jul-29 22:33N 35°25' E 139°39'1 1.4
2015-Jul-29 21:31N 35°24' E 139°40'0 0.1
2015-Jul-29 20:31N 35°23' E 139°40'0 0.1
2015-Jul-29 19:31N 35°23' E 139°40'0 0.0
2015-Jul-29 18:31N 35°23' E 139°40'0 0.0
2015-Jul-29 17:31N 35°23' E 139°40'0 0.0
2015-Jul-29 16:31N 35°24' E 139°40'0 0.1
2015-Jul-29 15:31N 35°24' E 139°40'0 0.0
2015-Jul-29 14:31N 35°24' E 139°40'0 0.0
2015-Jul-29 13:31N 35°24' E 139°40'0 0.1
2015-Jul-29 12:31N 35°24' E 139°40'0 0.0
2015-Jul-29 11:28N 35°23' E 139°40'0 0.0
2015-Jul-29 10:31N 35°23' E 139°40'0 0.1
2015-Jul-29 09:31N 35°24' E 139°40'0 0.0
2015-Jul-29 08:31N 35°24' E 139°40'0 0.1
2015-Jul-29 07:31N 35°24' E 139°40'0 0.1
2015-Jul-29 06:31N 35°23' E 139°40'0 0.0
2015-Jul-29 05:31N 35°23' E 139°40'0 0.1
2015-Jul-29 04:31N 35°23' E 139°40'0 0.1
2015-Jul-29 03:31N 35°24' E 139°40'0 0.0
2015-Jul-29 02:31N 35°24' E 139°40'0 0.1
2015-Jul-29 01:31N 35°24' E 139°40'0 0.1
2015-Jul-29 00:31N 35°24' E 139°40'0 0.0
2015-Jul-28 23:31N 35°24' E 139°40'0 0.0
2015-Jul-28 22:31N 35°24' E 139°40'0 0.0
2015-Jul-28 21:31N 35°23' E 139°40'0 0.0
2015-Jul-28 20:31N 35°23' E 139°40'0 0.1
2015-Jul-28 19:31N 35°23' E 139°40'0 0.0
2015-Jul-28 18:31N 35°23' E 139°40'0 0.0
2015-Jul-28 17:31N 35°23' E 139°40'0 0.0
2015-Jul-28 16:31N 35°23' E 139°40'0 0.0
2015-Jul-28 15:31N 35°24' E 139°40'0 0.1
2015-Jul-28 14:31N 35°24' E 139°40'0 0.0
2015-Jul-28 13:31N 35°24' E 139°40'0 0.0
2015-Jul-28 12:31N 35°24' E 139°40'0 0.0
2015-Jul-28 11:31N 35°24' E 139°40'0 0.0
2015-Jul-28 10:31N 35°24' E 139°40'0 0.0
2015-Jul-28 09:31N 35°24' E 139°40'0 0.1
2015-Jul-28 08:31N 35°24' E 139°40'0 0.0
2015-Jul-28 07:31N 35°24' E 139°40'0 0.1
2015-Jul-28 06:31N 35°24' E 139°40'0 0.0
2015-Jul-28 05:31N 35°24' E 139°40'0 0.0
2015-Jul-28 04:31N 35°24' E 139°40'0 0.0
2015-Jul-28 03:31N 35°24' E 139°40'0 0.0
2015-Jul-28 02:31N 35°24' E 139°40'0 0.0
2015-Jul-28 01:31N 35°24' E 139°40'0 0.0
2015-Jul-28 00:31N 35°24' E 139°40'0 0.0
2015-Jul-27 23:31N 35°24' E 139°40'0 0.0
2015-Jul-27 22:31N 35°24' E 139°40'0 0.1
2015-Jul-27 21:31N 35°24' E 139°40'0 0.0
2015-Jul-27 20:31N 35°24' E 139°40'0 0.0
2015-Jul-27 19:31N 35°24' E 139°40'0 0.1
2015-Jul-27 18:31N 35°24' E 139°40'0 0.0
2015-Jul-27 17:31N 35°24' E 139°40'1 0.8
2015-Jul-27 16:33N 35°23' E 139°41'9 9.4
2015-Jul-27 15:33N 35°15' E 139°47'1111.0
2015-Jul-27 14:33N 35°05' E 139°43'1712.2
2015-Jul-27 13:12N 34°54' E 139°28'228 9.6
2015-Jul-26 13:29N 34°02' E 134°58'910.1
2015-Jul-26 12:34N 34°11' E 134°58'1010.4
2015-Jul-26 11:33N 34°22' E 134°60'1010.0
2015-Jul-26 10:33N 34°31' E 135°03'7 6.6
2015-Jul-26 09:32N 34°36' E 134°57'  

Dump ship's entire track history